createdAt,value
2022-09-27T00:02:15.985Z,94576.09
2022-09-27T00:04:43.471Z,94578.66
2022-09-27T00:07:11.100Z,94571.47
2022-09-27T00:09:40.188Z,94564.78
2022-09-27T00:12:07.643Z,94564.66
2022-09-27T00:14:35.106Z,94558.56
2022-09-27T00:17:02.557Z,94554.63
2022-09-27T00:19:30.135Z,94557.34
2022-09-27T00:21:57.893Z,94558.94
2022-09-27T00:24:25.357Z,94554.09
2022-09-27T00:26:54.272Z,94549.97
2022-09-27T00:29:22.020Z,94549.97
2022-09-27T00:31:50.099Z,94541.75
2022-09-27T00:34:21.165Z,94538.06
2022-09-27T00:36:48.884Z,94541.31
2022-09-27T00:39:16.902Z,94537.75
2022-09-27T00:41:45.134Z,94537.28
2022-09-27T00:44:59.285Z,94530.69
2022-09-27T00:47:31.073Z,94526.31
2022-09-27T00:50:04.440Z,94528.81
2022-09-27T00:52:39.592Z,94513.34
2022-09-27T00:55:14.003Z,94515.63
2022-09-27T00:57:45.381Z,94514.19
2022-09-27T01:00:16.073Z,94515.25
2022-09-27T01:02:47.997Z,94503.22
2022-09-27T01:05:18.524Z,94517.59
2022-09-27T01:07:45.961Z,94502.28
2022-09-27T01:10:15.096Z,94508.44
2022-09-27T01:12:53.692Z,94512.13
2022-09-27T01:15:29.547Z,94503.13
2022-09-27T01:18:13.212Z,94502.06
2022-09-27T01:21:00.412Z,94497.88
2022-09-27T01:23:52.116Z,94494.28
2022-09-27T01:26:34.251Z,94490.84
2022-09-27T01:29:10.887Z,94496.53
2022-09-27T01:31:47.541Z,94492.00
2022-09-27T01:34:25.887Z,94502.97
2022-09-27T01:36:56.778Z,94498.28
2022-09-27T01:39:39.070Z,94484.41
2022-09-27T01:42:19.787Z,94478.94
2022-09-27T01:44:54.308Z,94484.38
2022-09-27T01:47:25.637Z,94483.50
2022-09-27T01:50:00.000Z,94466.25
2022-09-27T01:52:34.297Z,94471.75
2022-09-27T01:55:07.044Z,94465.69
2022-09-27T01:57:38.475Z,94466.03
2022-09-27T02:00:09.077Z,94460.13
2022-09-27T02:02:43.197Z,94463.28
2022-09-27T02:05:14.234Z,94458.59
2022-09-27T02:07:49.288Z,94452.47
2022-09-27T02:10:22.802Z,94441.00
2022-09-27T02:12:53.669Z,94447.22
2022-09-27T02:15:21.602Z,94455.13
2022-09-27T02:17:58.901Z,94443.13
2022-09-27T02:20:31.910Z,94450.28
2022-09-27T02:23:07.620Z,94450.44
2022-09-27T02:25:42.812Z,94439.13
2022-09-27T02:28:22.536Z,94440.16
2022-09-27T02:30:50.368Z,94442.22
2022-09-27T02:33:21.624Z,94437.81
2022-09-27T02:35:49.165Z,94435.19
2022-09-27T02:38:16.821Z,94432.13
2022-09-27T02:40:46.798Z,94440.06
2022-09-27T02:43:17.809Z,94433.88
2022-09-27T02:45:57.437Z,94436.00
2022-09-27T02:48:34.606Z,94427.97
2022-09-27T02:51:22.474Z,94428.91
2022-09-27T02:54:05.548Z,94427.16
2022-09-27T02:56:41.163Z,94430.97
2022-09-27T02:59:20.009Z,94411.53
2022-09-27T03:02:00.966Z,94413.75
2022-09-27T03:04:38.347Z,94418.88
2022-09-27T03:07:06.802Z,94418.00
2022-09-27T03:09:44.273Z,94411.50
2022-09-27T03:12:11.838Z,94417.41
2022-09-27T03:14:39.352Z,94420.78
2022-09-27T03:17:06.923Z,94415.25
2022-09-27T03:19:35.824Z,94415.56
2022-09-27T03:22:03.310Z,94423.13
2022-09-27T03:24:30.801Z,94410.03
2022-09-27T03:26:58.292Z,94411.78
2022-09-27T03:29:25.770Z,94408.06
2022-09-27T03:31:53.254Z,94415.47
2022-09-27T03:34:20.726Z,94410.22
2022-09-27T03:36:49.563Z,94399.63
2022-09-27T03:39:17.127Z,94403.28
2022-09-27T03:41:44.610Z,94415.06
2022-09-27T03:44:12.110Z,94400.03
2022-09-27T03:46:39.663Z,94401.34
2022-09-27T03:49:07.168Z,94388.91
2022-09-27T03:51:34.649Z,94403.56
2022-09-27T03:54:03.517Z,94403.78
2022-09-27T03:56:31.469Z,94395.97
2022-09-27T03:58:58.943Z,94384.75
2022-09-27T04:01:26.969Z,94376.50
2022-09-27T04:03:54.617Z,94382.41
2022-09-27T04:06:22.956Z,94383.28
2022-09-27T04:08:50.695Z,94367.72
2022-09-27T04:11:19.568Z,94379.06
2022-09-27T04:13:48.025Z,94379.88
2022-09-27T04:16:15.672Z,94374.31
2022-09-27T04:18:43.307Z,94375.44
2022-09-27T04:21:10.835Z,94378.78
2022-09-27T04:23:38.429Z,94377.50
2022-09-27T04:26:06.568Z,94378.28
2022-09-27T04:28:35.393Z,94372.16
2022-09-27T04:31:03.399Z,94380.34
2022-09-27T04:33:30.953Z,94385.59
2022-09-27T04:36:16.233Z,94379.47
2022-09-27T04:38:43.719Z,94386.72
2022-09-27T04:41:11.177Z,94380.53
2022-09-27T04:43:40.012Z,94379.78
2022-09-27T04:46:07.554Z,94380.66
2022-09-27T04:48:35.075Z,94378.88
2022-09-27T04:51:03.874Z,94375.34
2022-09-27T04:53:32.037Z,94367.66
2022-09-27T04:56:02.753Z,94374.34
2022-09-27T04:58:30.401Z,94391.34
2022-09-27T05:00:59.532Z,94390.34
2022-09-27T05:03:28.250Z,94394.22
2022-09-27T05:05:55.752Z,94400.97
2022-09-27T05:08:23.664Z,94400.34
2022-09-27T05:10:51.161Z,94394.31
2022-09-27T05:13:19.325Z,94404.91
2022-09-27T05:15:46.974Z,94401.53
2022-09-27T05:18:15.818Z,94402.25
2022-09-27T05:20:43.781Z,94402.78
2022-09-27T05:23:11.288Z,94408.09
2022-09-27T05:25:38.777Z,94403.97
2022-09-27T05:28:06.809Z,94405.69
2022-09-27T05:30:35.421Z,94394.78
2022-09-27T05:33:02.952Z,94403.25
2022-09-27T05:35:33.849Z,94397.00
2022-09-27T05:38:01.675Z,94408.03
2022-09-27T05:40:40.825Z,94405.03
2022-09-27T05:43:09.650Z,94417.47
2022-09-27T05:45:37.121Z,94424.84
2022-09-27T05:48:05.197Z,94420.78
2022-09-27T05:50:34.044Z,94429.78
2022-09-27T05:53:01.508Z,94434.44
2022-09-27T05:55:29.719Z,94427.53
2022-09-27T05:57:58.472Z,94434.66
2022-09-27T06:00:26.977Z,94436.53
2022-09-27T06:02:56.186Z,94432.03
2022-09-27T06:05:24.541Z,94428.94
2022-09-27T06:07:54.074Z,94436.47
2022-09-27T06:10:21.812Z,94428.94
2022-09-27T06:12:50.200Z,94447.47
2022-09-27T06:15:17.787Z,94439.03
2022-09-27T06:17:45.250Z,94448.47
2022-09-27T06:20:13.128Z,94451.72
2022-09-27T06:22:41.227Z,94453.56
2022-09-27T06:25:10.812Z,94444.47
2022-09-27T06:27:38.417Z,94444.00
2022-09-27T06:30:06.836Z,94452.50
2022-09-27T06:32:34.323Z,94446.44
2022-09-27T06:35:05.094Z,94442.88
2022-09-27T06:37:32.559Z,94450.56
2022-09-27T06:40:00.033Z,94446.94
2022-09-27T06:42:30.437Z,94445.41
2022-09-27T06:44:57.917Z,94449.38
2022-09-27T06:47:26.651Z,94460.75
2022-09-27T06:49:54.151Z,94466.03
2022-09-27T06:52:21.672Z,94468.13
2022-09-27T06:54:49.127Z,94468.59
2022-09-27T06:57:36.588Z,94480.34
2022-09-27T07:00:23.459Z,94482.19
2022-09-27T07:02:51.051Z,94480.56
2022-09-27T07:05:18.860Z,94490.66
2022-09-27T07:07:47.835Z,94484.38
2022-09-27T07:10:18.066Z,94502.63
2022-09-27T07:12:47.387Z,94500.97
2022-09-27T07:15:16.554Z,94500.50
2022-09-27T07:17:44.028Z,94500.91
2022-09-27T07:20:11.716Z,94505.06
2022-09-27T07:22:44.088Z,94514.38
2022-09-27T07:25:11.884Z,94513.75
2022-09-27T07:27:41.183Z,94523.88
2022-09-27T07:30:10.662Z,94520.25
2022-09-27T07:32:39.586Z,94516.88
2022-09-27T07:35:09.225Z,94511.47
2022-09-27T07:37:38.252Z,94499.69
2022-09-27T07:40:09.295Z,94498.63
2022-09-27T07:42:38.958Z,94503.69
2022-09-27T07:45:09.305Z,94501.88
2022-09-27T07:47:38.859Z,94522.25
2022-09-27T07:50:10.121Z,94509.41
2022-09-27T07:52:41.117Z,94515.38
2022-09-27T07:55:10.673Z,94512.34
2022-09-27T07:57:38.690Z,94509.59
2022-09-27T08:00:08.457Z,94528.44
2022-09-27T08:02:36.022Z,94531.22
2022-09-27T08:05:04.392Z,94529.16
2022-09-27T08:07:33.726Z,94545.41
2022-09-27T08:10:01.261Z,94535.34
2022-09-27T08:12:28.747Z,94547.75
2022-09-27T08:14:58.519Z,94549.81
2022-09-27T08:17:26.073Z,94554.97
2022-09-27T08:19:53.616Z,94550.09
2022-09-27T08:22:21.785Z,94551.31
2022-09-27T08:24:50.664Z,94557.84
2022-09-27T08:27:18.372Z,94563.34
2022-09-27T08:29:46.011Z,94571.22
2022-09-27T08:32:13.836Z,94579.91
2022-09-27T08:34:41.840Z,94592.41
2022-09-27T08:37:09.366Z,94592.41
2022-09-27T08:39:36.879Z,94591.09
2022-09-27T08:42:18.643Z,94585.59
2022-09-27T08:44:55.280Z,94587.03
2022-09-27T08:47:28.024Z,94599.25
2022-09-27T08:50:00.388Z,94594.97
2022-09-27T08:52:33.630Z,94597.88
2022-09-27T08:55:05.613Z,94599.06
2022-09-27T08:57:34.495Z,94604.59
2022-09-27T09:00:06.184Z,94596.16
2022-09-27T09:02:34.599Z,94609.03
2022-09-27T09:05:08.068Z,94606.38
2022-09-27T09:07:54.108Z,94599.47
2022-09-27T09:10:52.537Z,94613.34
2022-09-27T09:13:44.001Z,94609.06
2022-09-27T09:16:28.432Z,94611.25
2022-09-27T09:19:15.584Z,94608.81
2022-09-27T09:21:55.605Z,94601.09
2022-09-27T09:24:34.640Z,94617.06
2022-09-27T09:27:09.379Z,94611.25
2022-09-27T09:29:55.772Z,94602.91
2022-09-27T09:32:35.432Z,94609.88
2022-09-27T09:35:07.217Z,94608.72
2022-09-27T09:37:39.830Z,94612.44
2022-09-27T09:40:19.768Z,94628.25
2022-09-27T09:42:53.705Z,94624.78
2022-09-27T09:45:27.300Z,94622.16
2022-09-27T09:48:01.856Z,94627.41
2022-09-27T09:50:32.464Z,94619.88
2022-09-27T09:53:05.144Z,94632.84
2022-09-27T09:55:36.388Z,94619.91
2022-09-27T09:58:19.080Z,94610.19
2022-09-27T10:00:49.014Z,94617.16
2022-09-27T10:03:16.692Z,94625.09
2022-09-27T10:05:45.504Z,94627.66
2022-09-27T10:08:18.649Z,94633.56
2022-09-27T10:10:46.220Z,94642.66
2022-09-27T10:13:18.051Z,94632.28
2022-09-27T10:15:51.696Z,94634.00
2022-09-27T10:18:20.488Z,94639.00
2022-09-27T10:20:53.653Z,94626.38
2022-09-27T10:23:25.007Z,94632.09
2022-09-27T10:25:55.828Z,94616.38
2022-09-27T10:28:32.730Z,94614.19
2022-09-27T10:31:03.983Z,94599.47
2022-09-27T10:33:32.671Z,94600.28
2022-09-27T10:36:01.584Z,94610.56
2022-09-27T10:38:31.135Z,94610.59
2022-09-27T10:41:16.363Z,94608.53
2022-09-27T10:43:43.876Z,94610.97
2022-09-27T10:46:22.739Z,94602.59
2022-09-27T10:49:09.663Z,94616.84
2022-09-27T10:51:37.792Z,94619.41
2022-09-27T10:54:05.984Z,94631.28
2022-09-27T10:56:35.522Z,94632.81
2022-09-27T10:59:05.237Z,94635.03
2022-09-27T11:01:42.236Z,94641.31
2022-09-27T11:04:21.052Z,94640.34
2022-09-27T11:06:50.181Z,94630.28
2022-09-27T11:09:23.318Z,94647.38
2022-09-27T11:11:51.044Z,94648.28
2022-09-27T11:14:21.756Z,94645.94
2022-09-27T11:17:09.464Z,94640.88
2022-09-27T11:20:15.368Z,94635.19
2022-09-27T11:23:01.879Z,94645.00
2022-09-27T11:25:40.047Z,94645.59
2022-09-27T11:28:18.484Z,94641.13
2022-09-27T11:30:55.665Z,94648.25
2022-09-27T11:33:42.990Z,94642.34
2022-09-27T11:36:19.172Z,94637.59
2022-09-27T11:39:03.316Z,94655.59
2022-09-27T11:41:43.859Z,94661.03
2022-09-27T11:44:32.353Z,94653.94
2022-09-27T11:47:13.552Z,94663.88
2022-09-27T11:50:08.376Z,94661.72
2022-09-27T11:52:46.341Z,94643.16
2022-09-27T11:55:24.671Z,94635.97
2022-09-27T11:58:03.471Z,94630.03
2022-09-27T12:00:42.896Z,94629.69
2022-09-27T12:03:32.627Z,94618.25
2022-09-27T12:06:10.761Z,94623.09
2022-09-27T12:08:50.322Z,94624.13
2022-09-27T12:11:24.884Z,94631.66
2022-09-27T12:13:58.023Z,94623.47
2022-09-27T12:16:27.903Z,94627.81
2022-09-27T12:18:56.840Z,94624.81
2022-09-27T12:21:27.313Z,94626.75
2022-09-27T12:23:58.204Z,94614.19
2022-09-27T12:26:30.320Z,94609.25
2022-09-27T12:29:00.821Z,94608.06
2022-09-27T12:31:33.988Z,94612.81
2022-09-27T12:34:15.154Z,94617.91
2022-09-27T12:36:52.387Z,94616.75
2022-09-27T12:39:24.495Z,94628.28
2022-09-27T12:42:01.886Z,94611.66
2022-09-27T12:44:32.999Z,94609.09
2022-09-27T12:47:08.364Z,94613.31
2022-09-27T12:49:46.862Z,94608.81
2022-09-27T12:52:23.376Z,94610.38
2022-09-27T12:55:13.244Z,94628.59
2022-09-27T12:57:49.273Z,94648.88
2022-09-27T13:00:21.082Z,94669.72
2022-09-27T13:03:15.118Z,94675.13
2022-09-27T13:06:06.258Z,94664.03
2022-09-27T13:08:54.340Z,94670.16
2022-09-27T13:11:27.368Z,94669.19
2022-09-27T13:13:57.795Z,94674.16
2022-09-27T13:16:26.660Z,94663.94
2022-09-27T13:19:01.278Z,94671.00
2022-09-27T13:22:02.404Z,94671.97
2022-09-27T13:24:47.005Z,94664.13
2022-09-27T13:27:37.236Z,94666.75
2022-09-27T13:30:48.013Z,94643.13
2022-09-27T13:33:44.206Z,94643.81
2022-09-27T13:36:22.707Z,94641.53
2022-09-27T13:39:01.158Z,94651.59
2022-09-27T13:41:38.608Z,94660.47
2022-09-27T13:44:16.170Z,94650.09
2022-09-27T13:46:53.391Z,94654.16
2022-09-27T13:49:26.906Z,94651.31
2022-09-27T13:51:58.924Z,94653.56
2022-09-27T13:54:41.963Z,94641.94
2022-09-27T13:57:45.655Z,94651.53
2022-09-27T14:00:19.759Z,94658.28
2022-09-27T14:02:56.079Z,94668.69
2022-09-27T14:05:28.863Z,94664.81
2022-09-27T14:07:59.748Z,94674.78
2022-09-27T14:10:29.041Z,94675.88
2022-09-27T14:12:57.328Z,94670.25
2022-09-27T14:15:29.508Z,94665.09
2022-09-27T14:17:58.828Z,94671.78
2022-09-27T14:20:38.751Z,94668.13
2022-09-27T14:23:06.632Z,94666.56
2022-09-27T14:25:34.120Z,94670.75
2022-09-27T14:28:01.769Z,94673.69
2022-09-27T14:30:31.381Z,94675.50
2022-09-27T14:33:02.293Z,94681.28
2022-09-27T14:35:49.260Z,94681.53
2022-09-27T14:38:37.585Z,94676.00
2022-09-27T14:41:08.328Z,94679.00
2022-09-27T14:43:36.886Z,94678.25
2022-09-27T14:46:07.646Z,94672.75
2022-09-27T14:48:38.708Z,94674.97
2022-09-27T14:51:20.556Z,94673.78
2022-09-27T14:53:50.459Z,94680.31
2022-09-27T14:56:22.526Z,94673.97
2022-09-27T14:58:53.887Z,94675.81
2022-09-27T15:01:23.692Z,94665.84
2022-09-27T15:03:53.435Z,94675.22
2022-09-27T15:06:21.823Z,94679.91
2022-09-27T15:08:50.274Z,94690.91
2022-09-27T15:11:19.320Z,94686.00
2022-09-27T15:13:51.191Z,94694.13
2022-09-27T15:16:21.721Z,94703.16
2022-09-27T15:19:00.726Z,94698.47
2022-09-27T15:21:31.011Z,94706.78
2022-09-27T15:23:59.538Z,94703.25
2022-09-27T15:26:36.024Z,94697.19
2022-09-27T15:29:04.195Z,94701.41
2022-09-27T15:31:34.625Z,94693.69
2022-09-27T15:34:06.651Z,94700.13
2022-09-27T15:36:59.982Z,94699.06
2022-09-27T15:39:30.010Z,94704.31
2022-09-27T15:42:08.796Z,94702.91
2022-09-27T15:44:45.797Z,94711.25
2022-09-27T15:47:52.922Z,94712.28
2022-09-27T15:50:35.945Z,94709.56
2022-09-27T15:53:05.544Z,94714.09
2022-09-27T15:55:35.689Z,94713.97
2022-09-27T15:58:06.031Z,94704.38
2022-09-27T16:00:34.647Z,94701.31
2022-09-27T16:03:02.257Z,94711.53
2022-09-27T16:05:33.086Z,94706.03
2022-09-27T16:08:02.406Z,94710.16
2022-09-27T16:10:33.606Z,94704.66
2022-09-27T16:13:01.042Z,94703.41
2022-09-27T16:15:28.564Z,94706.44
2022-09-27T16:17:57.681Z,94704.75
2022-09-27T16:20:27.515Z,94714.59
2022-09-27T16:22:55.954Z,94715.44
2022-09-27T16:25:25.437Z,94708.09
2022-09-27T16:27:53.227Z,94710.75
2022-09-27T16:30:21.528Z,94717.88
2022-09-27T16:32:50.018Z,94710.06
2022-09-27T16:35:18.799Z,94706.44
2022-09-27T16:37:46.552Z,94706.44
2022-09-27T16:40:15.172Z,94716.06
2022-09-27T16:42:44.183Z,94712.97
2022-09-27T16:45:15.707Z,94714.41
2022-09-27T16:47:46.365Z,94724.00
2022-09-27T16:50:33.057Z,94733.34
2022-09-27T16:53:00.666Z,94730.28
2022-09-27T16:55:28.722Z,94735.81
2022-09-27T16:57:59.723Z,94727.91
2022-09-27T17:00:28.370Z,94736.19
2022-09-27T17:02:55.880Z,94735.03
2022-09-27T17:05:23.731Z,94736.06
2022-09-27T17:07:52.238Z,94727.53
2022-09-27T17:10:20.124Z,94741.66
2022-09-27T17:12:48.100Z,94735.31
2022-09-27T17:15:18.068Z,94734.16
2022-09-27T17:17:49.593Z,94723.31
2022-09-27T17:20:17.199Z,94720.19
2022-09-27T17:22:44.639Z,94710.91
2022-09-27T17:25:12.080Z,94721.28
2022-09-27T17:27:39.629Z,94724.91
2022-09-27T17:30:08.615Z,94728.00
2022-09-27T17:32:38.469Z,94732.94
2022-09-27T17:35:09.690Z,94725.41
2022-09-27T17:37:37.196Z,94730.63
2022-09-27T17:40:05.309Z,94736.53
2022-09-27T17:42:33.605Z,94734.53
2022-09-27T17:45:01.097Z,94731.81
2022-09-27T17:47:54.868Z,94737.72
2022-09-27T17:50:28.354Z,94724.19
2022-09-27T17:52:57.841Z,94732.41
2022-09-27T17:55:26.506Z,94721.81
2022-09-27T17:57:54.013Z,94723.84
2022-09-27T18:00:21.639Z,94735.66
2022-09-27T18:02:49.388Z,94739.28
2022-09-27T18:05:20.937Z,94744.25
2022-09-27T18:07:50.103Z,94736.13
2022-09-27T18:10:18.066Z,94741.31
2022-09-27T18:12:45.590Z,94750.59
2022-09-27T18:15:19.877Z,94748.03
2022-09-27T18:17:54.490Z,94744.72
2022-09-27T18:20:24.813Z,94747.81
2022-09-27T18:22:53.944Z,94749.09
2022-09-27T18:25:21.385Z,94742.69
2022-09-27T18:27:49.804Z,94744.34
2022-09-27T18:30:17.571Z,94758.81
2022-09-27T18:32:45.021Z,94750.84
2022-09-27T18:35:12.472Z,94755.84
2022-09-27T18:37:41.802Z,94752.63
2022-09-27T18:40:13.524Z,94755.66
2022-09-27T18:42:40.968Z,94763.09
2022-09-27T18:45:09.316Z,94767.38
2022-09-27T18:47:36.839Z,94771.56
2022-09-27T18:50:04.911Z,94777.41
2022-09-27T18:52:32.357Z,94780.22
2022-09-27T18:54:59.910Z,94788.63
2022-09-27T18:57:28.774Z,94779.97
2022-09-27T18:59:56.238Z,94768.94
2022-09-27T19:02:23.695Z,94775.94
2022-09-27T19:04:51.214Z,94768.31
2022-09-27T19:07:18.688Z,94771.09
2022-09-27T19:09:46.180Z,94768.59
2022-09-27T19:12:13.616Z,94765.38
2022-09-27T19:14:42.421Z,94772.22
2022-09-27T19:17:09.893Z,94778.78
2022-09-27T19:19:37.353Z,94776.69
2022-09-27T19:22:05.492Z,94773.03
2022-09-27T19:24:32.927Z,94777.34
2022-09-27T19:27:00.374Z,94772.50
2022-09-27T19:29:27.917Z,94775.44
2022-09-27T19:31:59.281Z,94772.38
2022-09-27T19:34:26.966Z,94774.00
2022-09-27T19:36:55.368Z,94780.38
2022-09-27T19:39:22.819Z,94779.63
2022-09-27T19:41:50.251Z,94782.63
2022-09-27T19:44:17.851Z,94786.81
2022-09-27T19:46:45.742Z,94783.97
2022-09-27T19:49:14.618Z,94782.47
2022-09-27T19:51:42.185Z,94781.53
2022-09-27T19:54:11.074Z,94779.50
2022-09-27T19:56:38.508Z,94778.78
2022-09-27T19:59:07.372Z,94782.09
2022-09-27T20:01:35.513Z,94788.97
2022-09-27T20:04:03.322Z,94784.91
2022-09-27T20:06:33.064Z,94782.88
2022-09-27T20:09:02.897Z,94781.94
2022-09-27T20:11:31.231Z,94774.91
2022-09-27T20:13:59.827Z,94776.44
2022-09-27T20:16:28.130Z,94772.44
2022-09-27T20:18:57.253Z,94786.06
2022-09-27T20:21:27.318Z,94790.97
2022-09-27T20:23:57.607Z,94791.13
2022-09-27T20:26:26.645Z,94797.16
2022-09-27T20:28:55.617Z,94793.69
2022-09-27T20:31:24.832Z,94784.44
2022-09-27T20:33:52.705Z,94786.31
2022-09-27T20:36:22.506Z,94791.47
2022-09-27T20:38:51.799Z,94783.59
2022-09-27T20:41:22.527Z,94780.94
2022-09-27T20:43:53.928Z,94780.19
2022-09-27T20:46:22.208Z,94784.66
2022-09-27T20:48:52.651Z,94784.00
2022-09-27T20:51:20.681Z,94778.75
2022-09-27T20:53:49.022Z,94788.66
2022-09-27T20:56:18.352Z,94783.03
2022-09-27T20:58:47.778Z,94775.59
2022-09-27T21:01:16.202Z,94775.47
2022-09-27T21:03:43.707Z,94767.88
2022-09-27T21:06:12.806Z,94784.00
2022-09-27T21:08:41.383Z,94773.06
2022-09-27T21:11:10.537Z,94783.41
2022-09-27T21:13:39.592Z,94768.56
2022-09-27T21:16:10.233Z,94779.03
2022-09-27T21:18:38.284Z,94771.22
2022-09-27T21:21:08.574Z,94782.75
2022-09-27T21:23:42.051Z,94786.69
2022-09-27T21:26:14.364Z,94780.06
2022-09-27T21:28:43.162Z,94776.03
2022-09-27T21:31:14.898Z,94777.34
2022-09-27T21:33:47.176Z,94784.88
2022-09-27T21:36:14.665Z,94782.13
2022-09-27T21:38:42.171Z,94783.59
2022-09-27T21:41:14.552Z,94788.09
2022-09-27T21:43:44.187Z,94785.19
2022-09-27T21:46:14.701Z,94772.16
2022-09-27T21:48:44.128Z,94780.63
2022-09-27T21:51:13.432Z,94776.25
2022-09-27T21:53:42.583Z,94773.25
2022-09-27T21:56:11.248Z,94771.34
2022-09-27T21:58:40.513Z,94781.41
2022-09-27T22:01:09.138Z,94779.94
2022-09-27T22:03:39.322Z,94785.56
2022-09-27T22:06:10.606Z,94784.84
2022-09-27T22:08:38.126Z,94783.03
2022-09-27T22:11:06.751Z,94780.50
2022-09-27T22:13:34.356Z,94775.00
2022-09-27T22:16:05.726Z,94777.50
2022-09-27T22:18:35.168Z,94775.84
2022-09-27T22:21:05.685Z,94766.44
2022-09-27T22:23:33.476Z,94759.84
2022-09-27T22:26:01.809Z,94765.97
2022-09-27T22:28:29.333Z,94771.81
2022-09-27T22:30:56.814Z,94762.44
2022-09-27T22:33:24.433Z,94759.34
2022-09-27T22:35:51.929Z,94752.69
2022-09-27T22:38:20.753Z,94751.34
2022-09-27T22:40:54.798Z,94753.00
2022-09-27T22:43:22.303Z,94745.34
2022-09-27T22:45:49.833Z,94751.34
2022-09-27T22:48:18.967Z,94746.44
2022-09-27T22:50:46.600Z,94751.25
2022-09-27T22:53:14.509Z,94749.50
2022-09-27T22:55:43.320Z,94756.53
2022-09-27T22:58:10.808Z,94751.25
2022-09-27T23:00:38.828Z,94758.44
2022-09-27T23:03:06.359Z,94761.97
2022-09-27T23:05:33.843Z,94768.78
2022-09-27T23:08:01.440Z,94767.16
2022-09-27T23:10:29.266Z,94764.06
2022-09-27T23:12:58.924Z,94762.22
2022-09-27T23:15:26.378Z,94760.28
2022-09-27T23:17:54.913Z,94764.16
2022-09-27T23:20:23.551Z,94771.97
2022-09-27T23:22:51.937Z,94758.00
2022-09-27T23:25:19.398Z,94753.72
2022-09-27T23:27:45.894Z,94758.50
2022-09-27T23:30:15.847Z,94760.50
2022-09-27T23:32:45.159Z,94763.78
2022-09-27T23:35:13.204Z,94756.41
2022-09-27T23:37:40.923Z,94752.03
2022-09-27T23:40:10.027Z,94737.03
2022-09-27T23:42:37.490Z,94730.50
2022-09-27T23:45:05.605Z,94740.94
2022-09-27T23:47:34.420Z,94750.59
2022-09-27T23:50:01.869Z,94746.03
2022-09-27T23:52:29.389Z,94735.47
2022-09-27T23:54:56.883Z,94735.41
2022-09-27T23:57:24.393Z,94722.41
2022-09-27T23:59:51.847Z,94716.94
